Participated 5 times
Between 1986 and 1992
Francisco Antequera, Spain
Tour de France 2026 starts from Edinburgh, Scotland in

Stats and Facts from
Tour de France.

2026   2025   2024   2023  2022  2021  2020  2019   2018  2017   2016   2015  2014  2013   2012   2011  2010   2009   2008   2007   2006   2005   2004   2003   2002   2001   2000   1999   1998   1997  1996   1995   1994   1993   1992  1991   1990   1989   1988   1987   1986   1985   1984   1983  1982  1981   1980   1979  1978  1977   1976  1975  1974  1973   1972   1971   1970  1969   1968   1967   1966   1965  1964  1963   1962   1961   1960   1959   1958   1957  1956   1955   1954   1953   1952  1951  1950  1949   1948  1947  1939   1938   1937   1936   1935   1934   1933  1932   1931   1930  1929   1928   1927   1926  1925  1924  1923   1922   1921   1920   1919  1914   1913   1912   1911   1910  1909   1908   1907   1906  1905  1904   1903 

Tourstats
Sitemap

After stage 21 - 2026:
 16451 starters.
  5513 different riders.
  689 teams.
  2419 stages.
  470 restdays.
  469752.50 km.
  5946 abandoned riders.

Click map for 2014 route.
Facts from Tour de France 2014 Additional info and images from 2014.
  |   Stages.  |   Stage winners.  |   Days in jerseys.  |   Teams.  |   All riders.  |   All riders by age.  |   All riders from.  |  

  |   Rookies.  |   Withdrawls.  |   Average speed.  |   GC.  |   Polka  |   Green  |   White  |   Summits. (In tour)  |   Miscellaneous.  |  

Stage 13 on July 18th. 2014
Pick a stage:  1  2  3  4  5  6  7  8  9  10  11  12  13  14  15  16  17  18  19  20  21  

After stage 13:    Vincenzo Nibali    Vincenzo Nibali    Peter Sagan    Romain Bardet  
  Saint-ÉtienneChamrousse | Dist: 197.50km. | Winner: Vincenzo Nibali

Podium

Average speed for all riders in stage:  34,806 km./hr.

1
 Vincenzo Nibali  Astana Pro Team05h 12' 29"=37,922  km/h

2
 Rafał Majka  Saxo Bank-Tinkoff Bank05h 12' 39"+  00:00:10 =37,902  km/h

3
 Leopold König  NetApp – Endura05h 12' 40"+  00:00:11 =37,900  km/h

4  Alejandro Valverde  Movistar05h 13' 19"+  00:00:50 =37,821  km/h

5  Thibaut Pinot  FDJ.fr05h 13' 22"+  00:00:53 =37,815  km/h

6  Tejay Van Garderen  BMC05h 13' 52"+  00:01:23 =37,755  km/h

7  Romain Bardet  AG2R La Mondiale05h 13' 52"+  00:01:23 =37,755  km/h

8  Laurens Ten Dam  Belkin Pro Cycling05h 14' 05"+  00:01:36 =37,729  km/h

9  Jean-Christophe Peraud  AG2R La Mondiale05h 14' 38"+  00:02:09 =37,663  km/h

10  Fränk Schleck  Trek Factory Racing05h 14' 38"+  00:02:09 =37,663  km/h

11  Haimar  Zubeldía  Trek Factory Racing05h 14' 38"+  00:02:09 =37,663  km/h

12  Jurgen Van Den Broeck  Lotto-Belisol05h 14' 38"+  00:02:09 =37,663  km/h

13  Bauke Mollema  Belkin Pro Cycling05h 14' 38"+  00:02:09 =37,663  km/h

14  Pierre Rolland  Europcar05h 15' 30"+  00:03:01 =37,559  km/h

15  Rui Costa  Lampre-Merida05h 15' 30"+  00:03:01 =37,559  km/h

16  Michael Rogers  Saxo Bank-Tinkoff Bank05h 15' 36"+  00:03:07 =37,548  km/h

17  Christopher Horner  Lampre-Merida05h 15' 40"+  00:03:11 =37,540  km/h

18  Ben Gastauer  AG2R La Mondiale05h 16' 31"+  00:04:02 =37,439  km/h

19  Michal Kwiatkowski  Omega Pharma – Quick Step05h 16' 41"+  00:04:12 =37,419  km/h

20  Brice Feillu  Bretagne-Séché Environnement05h 18' 24"+  00:05:55 =37,217  km/h

21  Yury  Trofimov  Katusha05h 18' 24"+  00:05:55 =37,217  km/h

22  Luis Angel Mate  Cofidis – Solutions Crédits05h 19' 08"+  00:06:39 =37,132  km/h

23  John Gadret  Movistar05h 19' 20"+  00:06:51 =37,109  km/h

24  Peter Stetina  BMC05h 19' 36"+  00:07:07 =37,078  km/h

25  Geraint Thomas  Sky Procycling05h 21' 17"+  00:08:48 =36,883  km/h

26  Mikel Nieve  Sky Procycling05h 21' 17"+  00:08:48 =36,883  km/h

27  Richie Porte  Sky Procycling05h 21' 17"+  00:08:48 =36,883  km/h

28  Steven Kruijswijk  Belkin Pro Cycling05h 21' 17"+  00:08:48 =36,883  km/h

29  Mikaël Cherel  AG2R La Mondiale05h 21' 17"+  00:08:48 =36,883  km/h

30  Marcel Wyss  IAM Cycling05h 22' 34"+  00:10:05 =36,737  km/h

31  Tanel Kangert  Astana Pro Team05h 23' 20"+  00:10:51 =36,649  km/h

32  Thomas  Voeckler  Europcar05h 23' 37"+  00:11:08 =36,617  km/h

33  Peter Velits  BMC05h 23' 44"+  00:11:15 =36,604  km/h

34  Sylvain Chavanel  IAM Cycling05h 26' 04"+  00:13:35 =36,342  km/h

35  Benjamin King  Garmin Sharp05h 26' 04"+  00:13:35 =36,342  km/h

36  Adam Hansen  Lotto-Belisol05h 26' 25"+  00:13:56 =36,303  km/h

37  Jérôme Pineau  IAM Cycling05h 26' 39"+  00:14:10 =36,277  km/h

38  Michał Gołaś  Omega Pharma – Quick Step05h 28' 11"+  00:15:42 =36,108  km/h

39  Rudy Molard  Cofidis – Solutions Crédits05h 30' 17"+  00:17:48 =35,878  km/h

40  Anthony Delaplace  Bretagne-Séché Environnement05h 30' 17"+  00:17:48 =35,878  km/h

41  Jan Bakelants  Omega Pharma – Quick Step05h 30' 17"+  00:17:48 =35,878  km/h

42  Alessandro De Marchi  Cannondale Pro Cycling05h 31' 39"+  00:19:10 =35,730  km/h

43  Nicolas Roche  Saxo Bank-Tinkoff Bank05h 31' 39"+  00:19:10 =35,730  km/h

44  Yukiya  Arashiro  Europcar05h 32' 04"+  00:19:35 =35,686  km/h

45  Jan Bárta  NetApp – Endura05h 32' 52"+  00:20:23 =35,600  km/h

46  Bram Tankink  Belkin Pro Cycling05h 32' 52"+  00:20:23 =35,600  km/h

47  Amaël Moinard  BMC05h 32' 52"+  00:20:23 =35,600  km/h

48  Joaquin Rodriguez  Katusha05h 32' 52"+  00:20:23 =35,600  km/h

49  José Joaquin Rojas  Movistar05h 34' 28"+  00:21:59 =35,430  km/h

50  Ion Izagirre  Movistar05h 34' 28"+  00:21:59 =35,430  km/h

51  Markel Irizar  Trek Factory Racing05h 34' 28"+  00:21:59 =35,430  km/h

52  Michael Schär  BMC05h 34' 28"+  00:21:59 =35,430  km/h

53  Florian Guillou  Bretagne-Séché Environnement05h 34' 28"+  00:21:59 =35,430  km/h

54  Matthew Busche  Trek Factory Racing05h 34' 28"+  00:21:59 =35,430  km/h

55  Greg Van Avermaet  BMC05h 34' 28"+  00:21:59 =35,430  km/h

56  Lieuwe Westra  Astana Pro Team05h 35' 13"+  00:22:44 =35,350  km/h

57  Arnold Jeannesson  FDJ.fr05h 35' 59"+  00:23:30 =35,270  km/h

58  Jérémy Roy  FDJ.fr05h 35' 59"+  00:23:30 =35,270  km/h

59  Perrig Quemeneur  Europcar05h 37' 24"+  00:24:55 =35,122  km/h

60  Paul Voss  NetApp – Endura05h 37' 26"+  00:24:57 =35,118  km/h

61  Tom Dumoulin  Giant-Shimano05h 37' 26"+  00:24:57 =35,118  km/h

62  Jakob Fuglsang  Astana Pro Team05h 42' 48"+  00:30:19 =34,568  km/h

63  Koen De Kort  Giant-Shimano05h 44' 51"+  00:32:22 =34,363  km/h

64  Tom-Jelte Slagter  Garmin Sharp05h 44' 51"+  00:32:22 =34,363  km/h

65  José Mendes  NetApp – Endura05h 44' 51"+  00:32:22 =34,363  km/h

66  Sébastien Reichenbach  IAM Cycling05h 44' 51"+  00:32:22 =34,363  km/h

67  Jesus Herrada  Movistar05h 44' 51"+  00:32:22 =34,363  km/h

68  Nicolas Edet  Cofidis – Solutions Crédits05h 44' 51"+  00:32:22 =34,363  km/h

69  Lars Bak  Lotto-Belisol05h 44' 51"+  00:32:22 =34,363  km/h

70  Rubén Plaza  Movistar05h 44' 51"+  00:32:22 =34,363  km/h

71  Rafael Valls Ferri  Lampre-Merida05h 44' 51"+  00:32:22 =34,363  km/h

72  Alexandre Pichot  Europcar05h 44' 51"+  00:32:22 =34,363  km/h

73  Imanol Erviti  Movistar05h 44' 51"+  00:32:22 =34,363  km/h

74  Cyril Gautier  Europcar05h 44' 51"+  00:32:22 =34,363  km/h

75  Tiago Machado  NetApp – Endura05h 44' 51"+  00:32:22 =34,363  km/h

76  Kristijan Ðurasek  Lampre-Merida05h 44' 51"+  00:32:22 =34,363  km/h

77  Matthieu Ladagnous  FDJ.fr05h 44' 51"+  00:32:22 =34,363  km/h

78  Jean-Marc Bideau  Bretagne-Séché Environnement05h 44' 51"+  00:32:22 =34,363  km/h

79  Heinrich Haussler  IAM Cycling05h 44' 51"+  00:32:22 =34,363  km/h

80  Jens Voigt  Trek Factory Racing05h 44' 51"+  00:32:22 =34,363  km/h

81  Marco Marcato  Cannondale Pro Cycling05h 44' 51"+  00:32:22 =34,363  km/h

82  José Serpa  Lampre-Merida05h 44' 51"+  00:32:22 =34,363  km/h

83  Tony Martin  Omega Pharma – Quick Step05h 44' 51"+  00:32:22 =34,363  km/h

84  Maarten Wynants  Belkin Pro Cycling05h 44' 51"+  00:32:22 =34,363  km/h

85  Michele Scarponi  Astana Pro Team05h 44' 51"+  00:32:22 =34,363  km/h

86  Rein Taaramäe  Cofidis – Solutions Crédits05h 44' 51"+  00:32:22 =34,363  km/h

87  Michael Mørkøv  Saxo Bank-Tinkoff Bank05h 44' 51"+  00:32:22 =34,363  km/h

88  Tom Leezer  Belkin Pro Cycling05h 44' 51"+  00:32:22 =34,363  km/h

89  Matteo Tosatto  Saxo Bank-Tinkoff Bank05h 44' 51"+  00:32:22 =34,363  km/h

90  Lars Boom  Belkin Pro Cycling05h 44' 59"+  00:32:30 =34,349  km/h

91  Dmitriy Gruzdev  Astana Pro Team05h 45' 38"+  00:33:09 =34,285  km/h

92  Alessandro Vanotti  Astana Pro Team05h 45' 38"+  00:33:09 =34,285  km/h

93  Giovanni Visconti  Movistar05h 46' 00"+  00:33:31 =34,249  km/h

94  Sérgio Paulinho  Saxo Bank-Tinkoff Bank05h 46' 25"+  00:33:56 =34,207  km/h

95  Daniele Bennati  Saxo Bank-Tinkoff Bank05h 46' 25"+  00:33:56 =34,207  km/h

96  Bartosz Huzarski  NetApp – Endura05h 46' 25"+  00:33:56 =34,207  km/h

97  Armindo Fonseca  Bretagne-Séché Environnement05h 46' 25"+  00:33:56 =34,207  km/h

98  Blel Kadri  AG2R La Mondiale05h 46' 25"+  00:33:56 =34,207  km/h

99  Cédric Pineau  FDJ.fr05h 46' 40"+  00:34:11 =34,183  km/h

100  David Lopez  Sky Procycling05h 46' 45"+  00:34:16 =34,174  km/h

101  Roy Curvers  Giant-Shimano05h 46' 47"+  00:34:18 =34,171  km/h

102  Niki Terpstra  Omega Pharma – Quick Step05h 47' 07"+  00:34:38 =34,138  km/h

103  Andriy Grivko  Astana Pro Team05h 49' 21"+  00:36:52 =33,920  km/h

104  Sep Vanmarcke  Belkin Pro Cycling05h 51' 07"+  00:38:38 =33,749  km/h

105  Jens Keukeleire  Orica-GreenEDGE05h 51' 07"+  00:38:38 =33,749  km/h

106  Nelson Oliveira  Lampre-Merida05h 51' 07"+  00:38:38 =33,749  km/h

107  Fabio Sabatini  Cannondale Pro Cycling05h 51' 07"+  00:38:38 =33,749  km/h

108  Simon Yates  Orica-GreenEDGE05h 51' 07"+  00:38:38 =33,749  km/h

109  Romain Feillu  Bretagne-Séché Environnement05h 51' 07"+  00:38:38 =33,749  km/h

110  Martin Elmiger  IAM Cycling05h 51' 07"+  00:38:38 =33,749  km/h

111  Reto Hollenstein  IAM Cycling05h 51' 07"+  00:38:38 =33,749  km/h

112  Arnaud Gérard  Bretagne-Séché Environnement05h 51' 07"+  00:38:38 =33,749  km/h

113  Christian Meier  Orica-GreenEDGE05h 51' 07"+  00:38:38 =33,749  km/h

114  Simon Gerrans  Orica-GreenEDGE05h 51' 07"+  00:38:38 =33,749  km/h

115  Peter Sagan  Cannondale Pro Cycling05h 51' 07"+  00:38:38 =33,749  km/h

116  André Greipel  Lotto-Belisol05h 51' 07"+  00:38:38 =33,749  km/h

117  Kristjan Koren  Cannondale Pro Cycling05h 51' 07"+  00:38:38 =33,749  km/h

118  Elia Viviani  Cannondale Pro Cycling05h 51' 07"+  00:38:38 =33,749  km/h

119  Michael Albasini  Orica-GreenEDGE05h 51' 07"+  00:38:38 =33,749  km/h

120  Cyril Lemoine  Cofidis – Solutions Crédits05h 51' 07"+  00:38:38 =33,749  km/h

121  Bryan Coquard  Europcar05h 51' 07"+  00:38:38 =33,749  km/h

122  Sébastien Minard  AG2R La Mondiale05h 51' 07"+  00:38:38 =33,749  km/h

123  Zakkari Dempster  NetApp – Endura05h 51' 07"+  00:38:38 =33,749  km/h

124  Gregory Rast  Trek Factory Racing05h 51' 07"+  00:38:38 =33,749  km/h

125  Julien Simon  Cofidis – Solutions Crédits05h 51' 07"+  00:38:38 =33,749  km/h

126  Matteo Montaguti  AG2R La Mondiale05h 51' 07"+  00:38:38 =33,749  km/h

127  Jack Bauer  Garmin Sharp05h 51' 07"+  00:38:38 =33,749  km/h

128  Alexander Kristoff  Katusha05h 51' 07"+  00:38:38 =33,749  km/h

129  Tony Gallopin  Lotto-Belisol05h 51' 07"+  00:38:38 =33,749  km/h

130  Simon Špilak  Katusha05h 51' 07"+  00:38:38 =33,749  km/h

131  Beñat Intxausti  Movistar05h 51' 07"+  00:38:38 =33,749  km/h

132  Andreas Schillinger  NetApp – Endura05h 51' 07"+  00:38:38 =33,749  km/h

133  Kévin Reza  Europcar05h 51' 07"+  00:38:38 =33,749  km/h

134  Luke Durbridge  Orica-GreenEDGE05h 51' 07"+  00:38:38 =33,749  km/h

135  Svein Tuft  Orica-GreenEDGE05h 51' 07"+  00:38:38 =33,749  km/h

136  Vasil Kiryienka  Sky Procycling05h 51' 07"+  00:38:38 =33,749  km/h

137  Simon Clarke  Orica-GreenEDGE05h 51' 07"+  00:38:38 =33,749  km/h

138  Alex Howes  Garmin Sharp05h 51' 07"+  00:38:38 =33,749  km/h

139  Jürgen Roelandts  Lotto-Belisol05h 51' 07"+  00:38:38 =33,749  km/h

140  Arnaud Démare  FDJ.fr05h 51' 07"+  00:38:38 =33,749  km/h

141  Mickael Delage  FDJ.fr05h 51' 07"+  00:38:38 =33,749  km/h

142  Danny Pate  Sky Procycling05h 51' 07"+  00:38:38 =33,749  km/h

143  Adrien Petit  Cofidis – Solutions Crédits05h 51' 07"+  00:38:38 =33,749  km/h

144  Samuel Dumoulin  AG2R La Mondiale05h 51' 07"+  00:38:38 =33,749  km/h

145  Christophe Riblon  AG2R La Mondiale05h 51' 07"+  00:38:38 =33,749  km/h

146  Maxim Iglinskiy  Astana Pro Team05h 51' 07"+  00:38:38 =33,749  km/h

147  Sebastian Langeveld  Garmin Sharp05h 51' 07"+  00:38:38 =33,749  km/h

148  Gatis Smukulis  Katusha05h 51' 07"+  00:38:38 =33,749  km/h

149  Luca Paolini  Katusha05h 51' 07"+  00:38:38 =33,749  km/h

150  Daniel Oss  BMC05h 51' 17"+  00:38:48 =33,733  km/h

151  Maciej Bodnar  Cannondale Pro Cycling05h 51' 17"+  00:38:48 =33,733  km/h

152  Jean-Marc Marino  Cannondale Pro Cycling05h 51' 32"+  00:39:03 =33,709  km/h

153  Florian Vachon  Bretagne-Séché Environnement05h 51' 35"+  00:39:06 =33,705  km/h

154  Marcel Sieberg  Lotto-Belisol05h 51' 35"+  00:39:06 =33,705  km/h

155  Alessandro Petacchi  Omega Pharma – Quick Step05h 51' 44"+  00:39:15 =33,690  km/h

156  Mark Renshaw  Omega Pharma – Quick Step05h 51' 44"+  00:39:15 =33,690  km/h

157  Benoît Jarrier  Bretagne-Séché Environnement05h 51' 44"+  00:39:15 =33,690  km/h

158  Yohann Gène  Europcar05h 51' 44"+  00:39:15 =33,690  km/h

159  Ramūnas Navardauskas  Garmin Sharp05h 51' 50"+  00:39:21 =33,681  km/h

160  Johan Vansummeren  Garmin Sharp05h 52' 06"+  00:39:37 =33,655  km/h

161  Marcus Burghardt  BMC05h 52' 14"+  00:39:45 =33,642  km/h

162  Cheng Ji  Giant-Shimano05h 52' 39"+  00:40:10 =33,603  km/h

163  Bernhard Eisel  Sky Procycling05h 52' 39"+  00:40:10 =33,603  km/h

164  Vladimir Isaichev  Katusha05h 52' 39"+  00:40:10 =33,603  km/h

165  John Degenkolb  Giant-Shimano05h 52' 39"+  00:40:10 =33,603  km/h

166  William  Bonnet  FDJ.fr05h 52' 39"+  00:40:10 =33,603  km/h

167  Davide Cimolai  Lampre-Merida05h 53' 11"+  00:40:42 =33,552  km/h

168  Matteo Trentin  Omega Pharma – Quick Step05h 53' 11"+  00:40:42 =33,552  km/h

169  Albert Timmer  Giant-Shimano05h 54' 15"+  00:41:46 =33,451  km/h

170  Tom Veelers  Giant-Shimano05h 54' 15"+  00:41:46 =33,451  km/h

171  Marcel Kittel  Giant-Shimano05h 54' 15"+  00:41:46 =33,451  km/h

172  Dries Devenyns  Giant-Shimano05h 54' 15"+  00:41:46 =33,451  km/h

173  Roger Kluge  IAM Cycling05h 54' 15"+  00:41:46 =33,451  km/h


Withdrawls: 4
 RiderTeamReason
92   Janier Acevedo Garmin SharpDid not finish
129   Arthur Vichot FDJ.frDid not finish
171   Daniel Navarro Cofidis – Solutions CréditsDid not finish
25   Alexander Porsev KatushaExceeded time limit
Todays birthdays.

1887 • Paul Lepine
1897 • Léon Van Aken
1898 • Mario Vendruscolo
1913 • Maurice Cacheux
1913 • Gustave Danneels
1913 • Franz Dunder
1919 • René Desmet
1926 • Henri Van Kerckhove
1927 • Joseph Verhaert
1934 • Michel Vermeulin
1934 • Jan Westdorp
1939 • Guerrando Lenzi
1943 • Tony Houbrechts
1953 • Gianbattista Baronchelli
1956 • Per Bausager
1957 • Patrick Bonnet
1983 • Dimitri Champion
1984 • Thomas Dekker
1987 • Yoann Bagot
1987 • Jacques Janse Van Rensburg
1993 • Jack Haig

 

Optimized for Chrome - Edge
and Opera browsers.